sensor_id;sensor_type;location;lat;lon;timestamp;pressure;altitude;pressure_sealevel;temperature;humidity
48517;BME280;34310;51.904;4.256;2023-01-30T00:02:00;101909.81;;;16.75;53.58
48517;BME280;34310;51.904;4.256;2023-01-30T00:04:27;101911.34;;;16.71;53.61
48517;BME280;34310;51.904;4.256;2023-01-30T00:06:55;101896.31;;;16.67;53.48
48517;BME280;34310;51.904;4.256;2023-01-30T00:09:22;101894.19;;;16.62;53.82
48517;BME280;34310;51.904;4.256;2023-01-30T00:11:49;101879.06;;;16.56;53.70
48517;BME280;34310;51.904;4.256;2023-01-30T00:14:17;101884.19;;;16.55;53.70
48517;BME280;34310;51.904;4.256;2023-01-30T00:16:44;101888.22;;;16.50;53.66
48517;BME280;34310;51.904;4.256;2023-01-30T00:19:12;101892.31;;;16.46;53.90
48517;BME280;34310;51.904;4.256;2023-01-30T00:21:39;101883.50;;;16.44;53.81
48517;BME280;34310;51.904;4.256;2023-01-30T00:24:06;101889.22;;;16.38;53.86
48517;BME280;34310;51.904;4.256;2023-01-30T00:26:34;101892.44;;;16.34;54.04
48517;BME280;34310;51.904;4.256;2023-01-30T00:29:01;101891.34;;;16.31;54.15
48517;BME280;34310;51.904;4.256;2023-01-30T00:31:28;101890.25;;;16.27;54.12
48517;BME280;34310;51.904;4.256;2023-01-30T00:33:56;101876.22;;;16.25;54.19
48517;BME280;34310;51.904;4.256;2023-01-30T00:36:23;101879.34;;;16.20;54.27
48517;BME280;34310;51.904;4.256;2023-01-30T00:38:51;101872.09;;;16.16;54.33
48517;BME280;34310;51.904;4.256;2023-01-30T00:41:18;101880.53;;;16.11;54.59
48517;BME280;34310;51.904;4.256;2023-01-30T00:43:45;101873.72;;;16.14;54.52
48517;BME280;34310;51.904;4.256;2023-01-30T00:46:32;101871.59;;;16.08;54.61
48517;BME280;34310;51.904;4.256;2023-01-30T00:49:18;101863.50;;;16.03;54.85
48517;BME280;34310;51.904;4.256;2023-01-30T00:51:48;101858.09;;;16.00;54.88
48517;BME280;34310;51.904;4.256;2023-01-30T00:54:16;101853.78;;;16.01;54.73
48517;BME280;34310;51.904;4.256;2023-01-30T00:56:43;101849.78;;;15.93;54.87
48517;BME280;34310;51.904;4.256;2023-01-30T00:59:10;101841.88;;;15.91;54.87
48517;BME280;34310;51.904;4.256;2023-01-30T01:01:38;101853.88;;;15.89;55.07
48517;BME280;34310;51.904;4.256;2023-01-30T01:04:06;101839.84;;;15.87;55.09
48517;BME280;34310;51.904;4.256;2023-01-30T01:06:35;101826.63;;;15.84;55.12
48517;BME280;34310;51.904;4.256;2023-01-30T01:09:02;101810.91;;;15.83;55.13
48517;BME280;34310;51.904;4.256;2023-01-30T01:11:30;101795.00;;;15.78;55.20
48517;BME280;34310;51.904;4.256;2023-01-30T01:14:07;101777.56;;;15.77;55.16
48517;BME280;34310;51.904;4.256;2023-01-30T01:16:34;101787.59;;;15.71;55.45
48517;BME280;34310;51.904;4.256;2023-01-30T01:19:02;101797.81;;;15.68;55.35
48517;BME280;34310;51.904;4.256;2023-01-30T01:21:29;101807.22;;;15.66;55.55
48517;BME280;34310;51.904;4.256;2023-01-30T01:23:57;101800.03;;;15.62;55.63
48517;BME280;34310;51.904;4.256;2023-01-30T01:26:25;101799.78;;;15.59;55.93
48517;BME280;34310;51.904;4.256;2023-01-30T01:28:56;101797.94;;;15.58;55.91
48517;BME280;34310;51.904;4.256;2023-01-30T01:31:23;101801.97;;;15.53;55.94
48517;BME280;34310;51.904;4.256;2023-01-30T01:33:51;101806.25;;;15.52;55.88
48517;BME280;34310;51.904;4.256;2023-01-30T01:36:19;101801.66;;;15.48;55.91
48517;BME280;34310;51.904;4.256;2023-01-30T01:39:06;101798.84;;;15.45;56.05
48517;BME280;34310;51.904;4.256;2023-01-30T01:41:34;101801.25;;;15.42;56.17
48517;BME280;34310;51.904;4.256;2023-01-30T01:44:18;101815.66;;;15.37;56.35
48517;BME280;34310;51.904;4.256;2023-01-30T01:51:48;101797.81;;;15.30;56.46
48517;BME280;34310;51.904;4.256;2023-01-30T01:54:20;101802.72;;;15.25;56.60
48517;BME280;34310;51.904;4.256;2023-01-30T01:56:49;101800.91;;;15.24;56.58
48517;BME280;34310;51.904;4.256;2023-01-30T01:59:26;101798.22;;;15.23;56.64
48517;BME280;34310;51.904;4.256;2023-01-30T02:01:54;101802.31;;;15.19;56.71
48517;BME280;34310;51.904;4.256;2023-01-30T02:04:25;101802.91;;;15.15;56.90
48517;BME280;34310;51.904;4.256;2023-01-30T02:07:12;101806.50;;;15.17;56.81
48517;BME280;34310;51.904;4.256;2023-01-30T02:09:40;101809.72;;;15.13;57.03
48517;BME280;34310;51.904;4.256;2023-01-30T02:12:08;101806.91;;;15.10;56.96
48517;BME280;34310;51.904;4.256;2023-01-30T02:14:37;101801.09;;;15.14;56.72
48517;BME280;34310;51.904;4.256;2023-01-30T02:17:05;101805.81;;;15.06;56.91
48517;BME280;34310;51.904;4.256;2023-01-30T02:22:08;101814.06;;;15.01;57.13
48517;BME280;34310;51.904;4.256;2023-01-30T02:24:49;101798.34;;;14.99;57.23
48517;BME280;34310;51.904;4.256;2023-01-30T02:27:23;101787.53;;;14.93;57.39
48517;BME280;34310;51.904;4.256;2023-01-30T02:32:43;101776.25;;;14.93;57.34
48517;BME280;34310;51.904;4.256;2023-01-30T02:35:20;101778.75;;;14.91;57.40
48517;BME280;34310;51.904;4.256;2023-01-30T02:40:28;101781.81;;;14.85;57.57
48517;BME280;34310;51.904;4.256;2023-01-30T02:43:07;101778.31;;;14.85;57.61
48517;BME280;34310;51.904;4.256;2023-01-30T02:45:41;101786.22;;;14.86;57.59
48517;BME280;34310;51.904;4.256;2023-01-30T02:48:10;101779.03;;;14.82;57.68
48517;BME280;34310;51.904;4.256;2023-01-30T02:50:46;101777.91;;;14.79;57.74
48517;BME280;34310;51.904;4.256;2023-01-30T02:53:16;101779.50;;;14.77;57.78
48517;BME280;34310;51.904;4.256;2023-01-30T02:55:43;101782.00;;;14.75;57.75
48517;BME280;34310;51.904;4.256;2023-01-30T02:58:11;101775.91;;;14.75;57.83
48517;BME280;34310;51.904;4.256;2023-01-30T03:11:43;101780.44;;;14.66;58.05
48517;BME280;34310;51.904;4.256;2023-01-30T03:14:24;101772.66;;;14.66;57.99
48517;BME280;34310;51.904;4.256;2023-01-30T03:16:54;101775.03;;;14.63;58.07
48517;BME280;34310;51.904;4.256;2023-01-30T03:19:23;101780.34;;;14.64;57.99
48517;BME280;34310;51.904;4.256;2023-01-30T03:21:51;101778.53;;;14.63;58.08
48517;BME280;34310;51.904;4.256;2023-01-30T03:24:18;101780.94;;;14.60;58.12
48517;BME280;34310;51.904;4.256;2023-01-30T03:26:48;101780.72;;;14.57;58.30
48517;BME280;34310;51.904;4.256;2023-01-30T03:29:19;101778.91;;;14.56;58.31
48517;BME280;34310;51.904;4.256;2023-01-30T03:31:46;101780.50;;;14.54;58.36
48517;BME280;34310;51.904;4.256;2023-01-30T03:34:14;101780.50;;;14.54;58.27
48517;BME280;34310;51.904;4.256;2023-01-30T03:36:41;101768.66;;;14.71;57.86
48517;BME280;34310;51.904;4.256;2023-01-30T03:39:08;101776.91;;;14.77;57.46
48517;BME280;34310;51.904;4.256;2023-01-30T03:41:36;101774.63;;;14.81;57.42
48517;BME280;34310;51.904;4.256;2023-01-30T03:44:04;101765.31;;;14.85;57.48
48517;BME280;34310;51.904;4.256;2023-01-30T03:46:31;101765.94;;;14.94;57.45
48517;BME280;34310;51.904;4.256;2023-01-30T03:48:58;101769.94;;;15.02;57.49
48517;BME280;34310;51.904;4.256;2023-01-30T03:51:26;101760.88;;;15.09;57.19
48517;BME280;34310;51.904;4.256;2023-01-30T03:53:53;101766.38;;;15.13;57.22
48517;BME280;34310;51.904;4.256;2023-01-30T03:56:20;101761.28;;;15.15;57.04
48517;BME280;34310;51.904;4.256;2023-01-30T03:58:48;101765.91;;;15.19;57.18
48517;BME280;34310;51.904;4.256;2023-01-30T04:01:15;101769.50;;;15.21;57.11
48517;BME280;34310;51.904;4.256;2023-01-30T04:03:42;101774.00;;;15.24;57.08
48517;BME280;34310;51.904;4.256;2023-01-30T04:06:10;101769.69;;;15.24;56.86
48517;BME280;34310;51.904;4.256;2023-01-30T04:08:37;101778.50;;;15.26;57.03
48517;BME280;34310;51.904;4.256;2023-01-30T04:11:04;101768.09;;;15.26;56.98
48517;BME280;34310;51.904;4.256;2023-01-30T04:13:32;101762.09;;;15.27;57.04
48517;BME280;34310;51.904;4.256;2023-01-30T04:18:50;101762.09;;;15.27;56.88
48517;BME280;34310;51.904;4.256;2023-01-30T04:21:19;101764.69;;;15.27;56.89
48517;BME280;34310;51.904;4.256;2023-01-30T04:23:51;101773.41;;;15.28;56.97
48517;BME280;34310;51.904;4.256;2023-01-30T04:26:19;101782.91;;;15.27;56.91
48517;BME280;34310;51.904;4.256;2023-01-30T04:28:47;101790.72;;;15.27;56.94
48517;BME280;34310;51.904;4.256;2023-01-30T04:31:14;101791.63;;;15.28;56.98
48517;BME280;34310;51.904;4.256;2023-01-30T04:33:41;101783.81;;;15.28;56.89
48517;BME280;34310;51.904;4.256;2023-01-30T04:36:09;101773.50;;;15.29;56.90
48517;BME280;34310;51.904;4.256;2023-01-30T04:38:36;101777.81;;;15.29;56.96
48517;BME280;34310;51.904;4.256;2023-01-30T04:41:04;101782.09;;;15.28;56.91
48517;BME280;34310;51.904;4.256;2023-01-30T04:43:31;101778.59;;;15.28;56.88
48517;BME280;34310;51.904;4.256;2023-01-30T04:45:58;101788.13;;;15.27;56.88
48517;BME280;34310;51.904;4.256;2023-01-30T04:48:26;101785.41;;;15.26;56.95
48517;BME280;34310;51.904;4.256;2023-01-30T04:50:55;101795.00;;;15.27;56.91
48517;BME280;34310;51.904;4.256;2023-01-30T04:53:23;101791.50;;;15.26;56.85
48517;BME280;34310;51.904;4.256;2023-01-30T04:55:50;101799.91;;;15.22;57.07
48517;BME280;34310;51.904;4.256;2023-01-30T04:58:18;101802.53;;;15.22;56.97
48517;BME280;34310;51.904;4.256;2023-01-30T05:00:45;101805.91;;;15.21;57.22
48517;BME280;34310;51.904;4.256;2023-01-30T05:03:17;101824.03;;;15.19;57.03
48517;BME280;34310;51.904;4.256;2023-01-30T05:05:45;101825.53;;;15.16;57.19
48517;BME280;34310;51.904;4.256;2023-01-30T05:08:14;101809.91;;;15.16;57.25
48517;BME280;34310;51.904;4.256;2023-01-30T05:10:41;101807.22;;;15.14;57.22
48517;BME280;34310;51.904;4.256;2023-01-30T05:13:08;101809.59;;;15.11;57.43
48517;BME280;34310;51.904;4.256;2023-01-30T05:15:36;101810.19;;;15.07;57.46
48517;BME280;34310;51.904;4.256;2023-01-30T05:18:05;101811.91;;;15.07;57.58
48517;BME280;34310;51.904;4.256;2023-01-30T05:20:32;101813.50;;;15.05;57.58
48517;BME280;34310;51.904;4.256;2023-01-30T05:22:59;101816.66;;;15.01;57.58
48517;BME280;34310;51.904;4.256;2023-01-30T05:25:27;101814.75;;;14.98;57.73
48517;BME280;34310;51.904;4.256;2023-01-30T05:27:55;101813.06;;;14.99;57.72
48517;BME280;34310;51.904;4.256;2023-01-30T05:30:23;101817.25;;;14.97;57.85
48517;BME280;34310;51.904;4.256;2023-01-30T05:32:51;101807.53;;;14.94;57.84
48517;BME280;34310;51.904;4.256;2023-01-30T05:35:19;101810.03;;;14.93;57.75
48517;BME280;34310;51.904;4.256;2023-01-30T05:37:50;101811.63;;;14.91;57.96
48517;BME280;34310;51.904;4.256;2023-01-30T05:40:18;101813.94;;;14.86;58.02
48517;BME280;34310;51.904;4.256;2023-01-30T05:42:45;101818.22;;;14.85;57.83
48517;BME280;34310;51.904;4.256;2023-01-30T05:45:12;101843.13;;;14.82;57.98
48517;BME280;34310;51.904;4.256;2023-01-30T05:47:40;101828.31;;;14.81;57.98
48517;BME280;34310;51.904;4.256;2023-01-30T05:50:08;101813.41;;;14.78;58.16
48517;BME280;34310;51.904;4.256;2023-01-30T05:52:36;101812.16;;;14.73;58.24
48517;BME280;34310;51.904;4.256;2023-01-30T05:55:03;101815.25;;;14.68;58.34
48517;BME280;34310;51.904;4.256;2023-01-30T05:57:31;101830.84;;;14.68;58.39
48517;BME280;34310;51.904;4.256;2023-01-30T05:59:58;101830.72;;;14.66;58.55
48517;BME280;34310;51.904;4.256;2023-01-30T06:02:25;101831.31;;;14.62;58.49
48517;BME280;34310;51.904;4.256;2023-01-30T06:04:53;101818.91;;;14.58;58.68
48517;BME280;34310;51.904;4.256;2023-01-30T06:07:20;101814.50;;;14.57;58.76
48517;BME280;34310;51.904;4.256;2023-01-30T06:09:47;101826.59;;;14.56;58.47
48517;BME280;34310;51.904;4.256;2023-01-30T06:12:15;101833.28;;;14.53;58.73
48517;BME280;34310;51.904;4.256;2023-01-30T06:14:42;101841.75;;;14.50;58.84
48517;BME280;34310;51.904;4.256;2023-01-30T06:17:09;101837.25;;;14.48;58.98
48517;BME280;34310;51.904;4.256;2023-01-30T06:19:37;101847.66;;;14.48;58.89
48517;BME280;34310;51.904;4.256;2023-01-30T06:22:04;101839.50;;;14.43;59.09
48517;BME280;34310;51.904;4.256;2023-01-30T06:24:32;101853.25;;;14.42;59.05
48517;BME280;34310;51.904;4.256;2023-01-30T06:26:59;101853.13;;;14.41;59.20
48517;BME280;34310;51.904;4.256;2023-01-30T06:29:26;101842.41;;;14.36;59.19
48517;BME280;34310;51.904;4.256;2023-01-30T06:31:54;101861.50;;;14.37;59.17
48517;BME280;34310;51.904;4.256;2023-01-30T06:34:23;101848.19;;;14.32;59.30
48517;BME280;34310;51.904;4.256;2023-01-30T06:36:50;101839.41;;;14.30;59.36
48517;BME280;34310;51.904;4.256;2023-01-30T06:39:18;101848.78;;;14.28;59.45
48517;BME280;34310;51.904;4.256;2023-01-30T06:41:45;101842.69;;;14.27;59.63
48517;BME280;34310;51.904;4.256;2023-01-30T06:44:15;101837.25;;;14.48;58.69
48517;BME280;34310;51.904;4.256;2023-01-30T06:46:42;101838.78;;;14.57;58.52
48517;BME280;34310;51.904;4.256;2023-01-30T06:49:10;101846.00;;;14.62;58.43
48517;BME280;34310;51.904;4.256;2023-01-30T06:51:37;101836.81;;;14.67;58.39
48517;BME280;34310;51.904;4.256;2023-01-30T06:54:05;101841.09;;;14.78;58.40
48517;BME280;34310;51.904;4.256;2023-01-30T06:56:32;101852.03;;;14.85;58.29
48517;BME280;34310;51.904;4.256;2023-01-30T06:58:59;101849.03;;;14.93;58.11
48517;BME280;34310;51.904;4.256;2023-01-30T07:01:27;101844.16;;;14.97;57.94
48517;BME280;34310;51.904;4.256;2023-01-30T07:03:55;101847.97;;;15.02;57.86
48517;BME280;34310;51.904;4.256;2023-01-30T07:06:22;101858.72;;;15.07;57.85
48517;BME280;34310;51.904;4.256;2023-01-30T07:08:49;101861.53;;;15.10;57.72
48517;BME280;34310;51.904;4.256;2023-01-30T07:11:17;101865.22;;;15.13;57.69
48517;BME280;34310;51.904;4.256;2023-01-30T07:13:44;101873.94;;;15.14;57.71
48517;BME280;34310;51.904;4.256;2023-01-30T07:16:12;101875.06;;;15.17;57.71
48517;BME280;34310;51.904;4.256;2023-01-30T07:18:39;101883.75;;;15.18;57.52
48517;BME280;34310;51.904;4.256;2023-01-30T07:21:06;101886.47;;;15.19;57.54
48517;BME280;34310;51.904;4.256;2023-01-30T07:23:34;101887.25;;;15.18;57.48
48517;BME280;34310;51.904;4.256;2023-01-30T07:26:03;101879.56;;;15.20;57.48
48517;BME280;34310;51.904;4.256;2023-01-30T07:28:31;101878.75;;;15.21;57.50
48517;BME280;34310;51.904;4.256;2023-01-30T07:30:58;101877.84;;;15.21;57.37
48517;BME280;34310;51.904;4.256;2023-01-30T07:33:26;101876.16;;;15.21;57.55
48517;BME280;34310;51.904;4.256;2023-01-30T07:35:53;101882.25;;;15.22;57.46
48517;BME280;34310;51.904;4.256;2023-01-30T07:38:21;101879.66;;;15.22;57.52
48517;BME280;34310;51.904;4.256;2023-01-30T07:40:48;101891.88;;;15.23;57.54
48517;BME280;34310;51.904;4.256;2023-01-30T07:43:15;101890.06;;;15.22;57.39
48517;BME280;34310;51.904;4.256;2023-01-30T07:45:44;101884.88;;;15.22;57.55
48517;BME280;34310;51.904;4.256;2023-01-30T07:48:12;101889.16;;;15.21;57.36
48517;BME280;34310;51.904;4.256;2023-01-30T07:50:40;101889.16;;;15.21;57.45
48517;BME280;34310;51.904;4.256;2023-01-30T07:53:08;101893.06;;;15.14;57.52
48517;BME280;34310;51.904;4.256;2023-01-30T07:55:36;101893.75;;;15.12;57.60
48517;BME280;34310;51.904;4.256;2023-01-30T07:58:04;101882.53;;;15.13;57.45
48517;BME280;34310;51.904;4.256;2023-01-30T08:00:31;101885.94;;;15.12;57.80
48517;BME280;34310;51.904;4.256;2023-01-30T08:02:58;101899.75;;;15.11;57.81
48517;BME280;34310;51.904;4.256;2023-01-30T08:05:26;101918.97;;;15.13;58.05
48517;BME280;34310;51.904;4.256;2023-01-30T08:07:56;101922.56;;;15.15;57.91
48517;BME280;34310;51.904;4.256;2023-01-30T08:10:24;101925.97;;;15.14;57.96
48517;BME280;34310;51.904;4.256;2023-01-30T08:12:51;101937.16;;;15.13;57.88
48517;BME280;34310;51.904;4.256;2023-01-30T08:15:18;101938.97;;;15.14;58.19
48517;BME280;34310;51.904;4.256;2023-01-30T08:17:54;101932.88;;;15.13;58.20
48517;BME280;34310;51.904;4.256;2023-01-30T08:20:23;101914.56;;;15.12;58.09
48517;BME280;34310;51.904;4.256;2023-01-30T08:22:51;101925.88;;;15.12;58.20
48517;BME280;34310;51.904;4.256;2023-01-30T08:25:19;101933.66;;;15.12;58.11
48517;BME280;34310;51.904;4.256;2023-01-30T08:27:46;101926.75;;;15.13;58.04
48517;BME280;34310;51.904;4.256;2023-01-30T08:30:13;101924.97;;;15.12;58.08
48517;BME280;34310;51.904;4.256;2023-01-30T08:32:41;101935.38;;;15.12;58.21
48517;BME280;34310;51.904;4.256;2023-01-30T08:35:08;101945.78;;;15.12;58.26
48517;BME280;34310;51.904;4.256;2023-01-30T08:37:37;101937.84;;;15.10;58.22
48517;BME280;34310;51.904;4.256;2023-01-30T08:40:05;101951.78;;;15.11;58.14
48517;BME280;34310;51.904;4.256;2023-01-30T08:42:33;101952.66;;;15.11;58.25
48517;BME280;34310;51.904;4.256;2023-01-30T08:45:00;101956.97;;;15.11;58.29
48517;BME280;34310;51.904;4.256;2023-01-30T08:47:28;101972.56;;;15.11;58.31
48517;BME280;34310;51.904;4.256;2023-01-30T08:49:55;101965.56;;;15.10;58.35
48517;BME280;34310;51.904;4.256;2023-01-30T08:52:22;101973.38;;;15.10;58.28
48517;BME280;34310;51.904;4.256;2023-01-30T08:54:49;101961.28;;;15.10;58.31
48517;BME280;34310;51.904;4.256;2023-01-30T08:57:17;101956.97;;;15.11;58.33
48517;BME280;34310;51.904;4.256;2023-01-30T08:59:45;101960.47;;;15.11;58.29
48517;BME280;34310;51.904;4.256;2023-01-30T09:02:12;101985.78;;;15.14;58.27
48517;BME280;34310;51.904;4.256;2023-01-30T09:04:39;102001.50;;;15.15;58.32
48517;BME280;34310;51.904;4.256;2023-01-30T09:07:07;101997.22;;;15.16;58.21
48517;BME280;34310;51.904;4.256;2023-01-30T09:09:34;101990.19;;;15.15;58.07
48517;BME280;34310;51.904;4.256;2023-01-30T09:12:02;101983.31;;;15.15;58.12
48517;BME280;34310;51.904;4.256;2023-01-30T09:14:29;101998.00;;;15.15;58.13
48517;BME280;34310;51.904;4.256;2023-01-30T09:16:57;101990.41;;;15.18;58.09
48517;BME280;34310;51.904;4.256;2023-01-30T09:19:25;102004.22;;;15.17;58.39
48517;BME280;34310;51.904;4.256;2023-01-30T09:21:53;101999.91;;;15.17;58.03
48517;BME280;34310;51.904;4.256;2023-01-30T09:24:21;101999.91;;;15.17;58.15
48517;BME280;34310;51.904;4.256;2023-01-30T09:26:53;101995.50;;;15.16;58.16
48517;BME280;34310;51.904;4.256;2023-01-30T09:29:24;101994.81;;;15.19;58.21
48517;BME280;34310;51.904;4.256;2023-01-30T09:31:52;102010.66;;;15.22;58.01
48517;BME280;34310;51.904;4.256;2023-01-30T09:34:19;102013.25;;;15.22;58.12
48517;BME280;34310;51.904;4.256;2023-01-30T09:36:47;102021.94;;;15.23;58.08
48517;BME280;34310;51.904;4.256;2023-01-30T09:39:14;102025.47;;;15.23;58.14
48517;BME280;34310;51.904;4.256;2023-01-30T09:50:28;102038.25;;;15.20;58.13
48517;BME280;34310;51.904;4.256;2023-01-30T09:55:30;102038.94;;;15.17;58.36
48517;BME280;34310;51.904;4.256;2023-01-30T09:57:59;102056.47;;;15.20;58.24
48517;BME280;34310;51.904;4.256;2023-01-30T10:00:37;102049.56;;;15.21;58.21
48517;BME280;34310;51.904;4.256;2023-01-30T10:03:13;102068.56;;;15.19;58.28
48517;BME280;34310;51.904;4.256;2023-01-30T10:26:38;102083.50;;;15.22;57.77
48517;BME280;34310;51.904;4.256;2023-01-30T10:29:12;102097.41;;;15.23;57.86
48517;BME280;34310;51.904;4.256;2023-01-30T10:31:50;102105.22;;;15.23;57.84
48517;BME280;34310;51.904;4.256;2023-01-30T10:35:03;102104.53;;;15.25;57.97
48517;BME280;34310;51.904;4.256;2023-01-30T10:42:24;102101.44;;;15.31;57.83
48517;BME280;34310;51.904;4.256;2023-01-30T10:44:52;102101.44;;;15.31;57.69
48517;BME280;34310;51.904;4.256;2023-01-30T10:49:51;102112.44;;;15.27;57.88
48517;BME280;34310;51.904;4.256;2023-01-30T11:00:03;102111.75;;;15.29;57.97
48517;BME280;34310;51.904;4.256;2023-01-30T11:03:01;102114.13;;;15.26;58.31
48517;BME280;34310;51.904;4.256;2023-01-30T11:05:24;102120.47;;;15.30;57.92
48517;BME280;34310;51.904;4.256;2023-01-30T11:07:53;102106.53;;;15.29;58.10
48517;BME280;34310;51.904;4.256;2023-01-30T11:10:21;102119.00;;;15.33;58.25
48517;BME280;34310;51.904;4.256;2023-01-30T11:12:52;102123.63;;;15.37;57.86
48517;BME280;34310;51.904;4.256;2023-01-30T11:15:22;102123.84;;;15.40;58.10
48517;BME280;34310;51.904;4.256;2023-01-30T11:17:55;102113.06;;;15.47;57.99
48517;BME280;34310;51.904;4.256;2023-01-30T11:21:03;102127.31;;;15.53;58.04
48517;BME280;34310;51.904;4.256;2023-01-30T11:23:35;102129.84;;;15.63;57.85
48517;BME280;34310;51.904;4.256;2023-01-30T11:26:05;102118.56;;;15.75;57.75
48517;BME280;34310;51.904;4.256;2023-01-30T11:28:41;102122.03;;;15.88;57.82
48517;BME280;34310;51.904;4.256;2023-01-30T11:31:16;102121.19;;;16.00;57.54
48517;BME280;34310;51.904;4.256;2023-01-30T11:33:58;102115.09;;;16.13;57.43
48517;BME280;34310;51.904;4.256;2023-01-30T11:36:27;102115.06;;;16.25;57.21
48517;BME280;34310;51.904;4.256;2023-01-30T11:38:57;102108.06;;;16.37;57.05
48517;BME280;34310;51.904;4.256;2023-01-30T11:41:26;102102.66;;;16.47;57.06
48517;BME280;34310;51.904;4.256;2023-01-30T11:44:01;102110.00;;;16.53;56.88
48517;BME280;34310;51.904;4.256;2023-01-30T11:46:36;102114.31;;;16.65;56.86
48517;BME280;34310;51.904;4.256;2023-01-30T11:49:09;102106.13;;;16.72;56.50
48517;BME280;34310;51.904;4.256;2023-01-30T11:51:58;102103.44;;;16.84;56.14
48517;BME280;34310;51.904;4.256;2023-01-30T11:54:33;102100.44;;;16.91;55.91
48517;BME280;34310;51.904;4.256;2023-01-30T11:57:05;102107.84;;;16.98;55.55
48517;BME280;34310;51.904;4.256;2023-01-30T11:59:33;102103.81;;;17.03;55.59
48517;BME280;34310;51.904;4.256;2023-01-30T12:04:36;102110.56;;;17.13;55.51
48517;BME280;34310;51.904;4.256;2023-01-30T12:07:10;102127.50;;;17.20;55.82
48517;BME280;34310;51.904;4.256;2023-01-30T12:11:57;102103.59;;;18.24;53.73
48517;BME280;34310;51.904;4.256;2023-01-30T12:14:36;102129.59;;;18.80;52.21
48517;BME280;34310;51.904;4.256;2023-01-30T12:17:21;102102.91;;;19.16;51.37
48517;BME280;34310;51.904;4.256;2023-01-30T12:20:01;102103.13;;;19.52;50.72
48517;BME280;34310;51.904;4.256;2023-01-30T12:22:40;102105.44;;;19.62;50.62
48517;BME280;34310;51.904;4.256;2023-01-30T12:25:34;102101.84;;;19.60;51.03
48517;BME280;34310;51.904;4.256;2023-01-30T12:33:06;102111.38;;;19.74;50.82
48517;BME280;34310;51.904;4.256;2023-01-30T12:36:21;102106.44;;;19.80;50.79
48517;BME280;34310;51.904;4.256;2023-01-30T12:49:57;102113.34;;;19.78;51.06
48517;BME280;34310;51.904;4.256;2023-01-30T12:56:07;102132.25;;;19.89;50.59
48517;BME280;34310;51.904;4.256;2023-01-30T13:11:52;102137.34;;;20.02;49.45
48517;BME280;34310;51.904;4.256;2023-01-30T13:14:36;102143.47;;;20.03;49.24
48517;BME280;34310;51.904;4.256;2023-01-30T13:22:38;102151.03;;;19.97;49.49
48517;BME280;34310;51.904;4.256;2023-01-30T13:27:55;102133.56;;;19.81;49.87
48517;BME280;34310;51.904;4.256;2023-01-30T13:30:25;102148.06;;;19.74;49.77
48517;BME280;34310;51.904;4.256;2023-01-30T13:36:21;102155.06;;;19.59;50.86
48517;BME280;34310;51.904;4.256;2023-01-30T13:39:32;102161.97;;;19.42;50.87
48517;BME280;34310;51.904;4.256;2023-01-30T13:42:06;102165.94;;;19.36;51.29
48517;BME280;34310;51.904;4.256;2023-01-30T13:44:42;102172.63;;;19.31;51.27
48517;BME280;34310;51.904;4.256;2023-01-30T13:58:00;102194.81;;;18.92;51.82
48517;BME280;34310;51.904;4.256;2023-01-30T14:00:33;102196.09;;;18.83;52.20
48517;BME280;34310;51.904;4.256;2023-01-30T14:08:47;102209.81;;;18.79;52.06
48517;BME280;34310;51.904;4.256;2023-01-30T14:11:31;102226.78;;;18.86;52.38
48517;BME280;34310;51.904;4.256;2023-01-30T14:17:14;102231.66;;;19.09;51.76
48517;BME280;34310;51.904;4.256;2023-01-30T14:22:53;102230.00;;;19.26;51.50
48517;BME280;34310;51.904;4.256;2023-01-30T14:30:50;102253.09;;;19.33;51.51
48517;BME280;34310;51.904;4.256;2023-01-30T14:38:32;102268.81;;;19.33;51.64
48517;BME280;34310;51.904;4.256;2023-01-30T15:27:21;102349.28;;;18.50;52.48
48517;BME280;34310;51.904;4.256;2023-01-30T15:33:20;102349.38;;;18.39;52.88
48517;BME280;34310;51.904;4.256;2023-01-30T15:35:58;102355.13;;;18.33;53.00
48517;BME280;34310;51.904;4.256;2023-01-30T15:38:33;102355.56;;;18.26;52.74
48517;BME280;34310;51.904;4.256;2023-01-30T15:41:04;102361.97;;;18.18;53.03
48517;BME280;34310;51.904;4.256;2023-01-30T15:49:15;102390.56;;;18.02;53.56
48517;BME280;34310;51.904;4.256;2023-01-30T15:51:45;102380.53;;;17.94;53.54
48517;BME280;34310;51.904;4.256;2023-01-30T15:54:17;102389.66;;;17.88;53.82
48517;BME280;34310;51.904;4.256;2023-01-30T15:56:46;102393.25;;;17.90;53.69
48517;BME280;34310;51.904;4.256;2023-01-30T15:59:32;102396.59;;;17.87;53.97
48517;BME280;34310;51.904;4.256;2023-01-30T16:02:05;102405.13;;;17.85;53.80
48517;BME280;34310;51.904;4.256;2023-01-30T16:04:33;102400.91;;;17.87;54.06
48517;BME280;34310;51.904;4.256;2023-01-30T16:07:19;102407.84;;;17.86;54.12
48517;BME280;34310;51.904;4.256;2023-01-30T16:09:56;102406.13;;;17.87;53.98
48517;BME280;34310;51.904;4.256;2023-01-30T16:12:34;102404.41;;;17.87;54.23
48517;BME280;34310;51.904;4.256;2023-01-30T16:15:22;102409.34;;;17.83;54.53
48517;BME280;34310;51.904;4.256;2023-01-30T16:18:01;102410.44;;;17.73;54.53
48517;BME280;34310;51.904;4.256;2023-01-30T16:20:48;102416.94;;;17.67;54.49
48517;BME280;34310;51.904;4.256;2023-01-30T16:23:36;102415.59;;;17.60;54.87
48517;BME280;34310;51.904;4.256;2023-01-30T16:26:08;102420.53;;;17.55;54.99
48517;BME280;34310;51.904;4.256;2023-01-30T16:28:35;102427.03;;;17.49;55.08
48517;BME280;34310;51.904;4.256;2023-01-30T16:31:05;102434.78;;;17.47;55.11
48517;BME280;34310;51.904;4.256;2023-01-30T16:33:33;102441.41;;;17.42;55.45
48517;BME280;34310;51.904;4.256;2023-01-30T16:36:30;102444.69;;;17.40;55.29
48517;BME280;34310;51.904;4.256;2023-01-30T16:38:59;102445.41;;;17.37;55.32
48517;BME280;34310;51.904;4.256;2023-01-30T16:41:37;102454.44;;;17.42;55.56